Time;durP1;ratioP1;P1;durP2;ratioP2;P2;SDS_P1;SDS_P2;PMS_P1;PMS_P2;Temp;Humidity;BMP_temperature;BMP_pressure;BME280_temperature;BME280_humidity;BME280_pressure;Samples;Min_cycle;Max_cycle;Signal;HPM_P1;HPM_P2
2022/10/28 00:01:17;;;;;;;7.95;3.78;;;16.20;99.90;;;;;;5044081;23;22107;-65
2022/10/28 00:03:54;;;;;;;16.13;4.72;;;16.30;99.90;;;;;;5003972;28;20030;-64
2022/10/28 00:06:26;;;;;;;10.15;3.85;;;16.30;99.90;;;;;;5001779;28;20046;-63
2022/10/28 00:08:53;;;;;;;8.68;4.07;;;16.40;99.90;;;;;;5025226;28;20127;-64
2022/10/28 00:11:24;;;;;;;8.65;3.92;;;16.50;99.90;;;;;;5020725;28;20489;-64
2022/10/28 00:13:52;;;;;;;13.27;4.38;;;16.50;99.90;;;;;;5026770;28;20556;-64
2022/10/28 00:16:20;;;;;;;8.88;3.47;;;16.60;99.90;;;;;;4977294;28;20038;-63
2022/10/28 00:18:46;;;;;;;10.00;4.32;;;16.60;99.90;;;;;;5012911;28;20053;-64
2022/10/28 00:21:15;;;;;;;15.55;3.70;;;16.70;99.90;;;;;;5030116;28;20021;-64
2022/10/28 00:23:41;;;;;;;11.70;4.25;;;16.70;99.90;;;;;;5029785;28;20047;-64
2022/10/28 00:26:19;;;;;;;12.43;3.90;;;16.70;99.90;;;;;;5030077;28;20528;-64
2022/10/28 00:28:54;;;;;;;7.22;2.63;;;16.80;99.90;;;;;;5028990;28;20037;-64
2022/10/28 00:31:21;;;;;;;9.55;3.60;;;16.80;99.90;;;;;;5026885;28;20060;-64
2022/10/28 00:33:48;;;;;;;12.00;3.92;;;16.90;99.90;;;;;;5024710;28;20515;-64
2022/10/28 00:36:16;;;;;;;13.57;3.95;;;16.90;99.90;;;;;;5012707;28;20025;-64
2022/10/28 00:38:44;;;;;;;9.57;3.55;;;16.90;99.90;;;;;;5018942;28;20025;-64
2022/10/28 00:41:12;;;;;;;9.18;3.20;;;16.90;99.90;;;;;;5017386;28;20028;-63
2022/10/28 00:43:39;;;;;;;13.50;3.75;;;16.90;99.90;;;;;;5017097;28;20095;-64
2022/10/28 00:46:13;;;;;;;11.25;4.25;;;16.90;99.90;;;;;;5021840;28;20048;-63
2022/10/28 00:48:41;;;;;;;7.90;3.60;;;16.90;99.90;;;;;;5020041;28;20500;-63
2022/10/28 00:51:08;;;;;;;9.90;3.45;;;17.00;99.90;;;;;;5027014;28;20033;-63
2022/10/28 00:53:35;;;;;;;19.25;4.28;;;17.00;99.90;;;;;;5020035;28;20017;-63
2022/10/28 00:56:02;;;;;;;11.05;4.03;;;17.00;99.90;;;;;;5016507;28;20018;-64
2022/10/28 00:58:28;;;;;;;14.07;2.85;;;17.00;99.90;;;;;;5025353;28;20476;-64
2022/10/28 01:00:54;;;;;;;9.60;3.97;;;17.00;99.90;;;;;;5019612;28;20103;-64
2022/10/28 01:03:21;;;;;;;9.27;3.17;;;17.00;99.90;;;;;;5019814;28;20029;-65
2022/10/28 01:05:48;;;;;;;8.65;3.03;;;17.10;99.90;;;;;;5028678;28;20474;-64
2022/10/28 01:08:14;;;;;;;7.88;3.40;;;17.10;99.90;;;;;;5017254;28;22704;-64
2022/10/28 01:10:52;;;;;;;12.88;3.38;;;17.10;99.90;;;;;;5015357;28;20489;-64
2022/10/28 01:13:47;;;;;;;5.57;2.60;;;17.20;99.90;;;;;;5019177;28;20034;-65
2022/10/28 01:16:36;;;;;;;12.90;3.10;;;17.20;99.90;;;;;;5026231;28;20030;-64
2022/10/28 01:19:42;;;;;;;14.23;3.42;;;17.20;99.90;;;;;;5001583;28;20029;-63
2022/10/28 01:22:21;;;;;;;8.65;3.00;;;17.10;99.90;;;;;;5023958;28;20041;-63
2022/10/28 01:24:49;;;;;;;8.43;3.70;;;17.10;99.90;;;;;;5021831;28;20112;-64
2022/10/28 01:27:33;;;;;;;13.15;3.45;;;17.10;99.90;;;;;;5028663;28;20033;-64
2022/10/28 01:30:10;;;;;;;14.85;3.00;;;17.00;99.90;;;;;;5022976;28;20035;-64
2022/10/28 01:33:14;;;;;;;14.38;2.70;;;17.00;99.90;;;;;;5030136;28;20105;-63
2022/10/28 01:35:54;;;;;;;8.60;3.28;;;17.00;99.90;;;;;;5028880;28;20022;-64
2022/10/28 01:38:40;;;;;;;11.32;3.10;;;17.00;99.90;;;;;;5029156;28;20018;-64
2022/10/28 01:41:13;;;;;;;13.00;3.25;;;17.10;99.90;;;;;;5024132;28;20101;-64
2022/10/28 01:43:42;;;;;;;9.57;3.38;;;17.20;99.90;;;;;;5028043;28;20025;-63
2022/10/28 01:46:25;;;;;;;14.77;4.05;;;17.20;99.90;;;;;;5028724;28;20432;-64
2022/10/28 01:49:00;;;;;;;13.73;3.58;;;17.10;99.90;;;;;;5031809;28;20098;-63
2022/10/28 01:51:31;;;;;;;11.30;3.28;;;17.20;99.90;;;;;;5032307;28;20091;-65
2022/10/28 01:54:00;;;;;;;7.18;2.50;;;17.20;99.90;;;;;;5025249;28;20026;-64
2022/10/28 01:56:39;;;;;;;5.38;2.97;;;17.10;99.90;;;;;;5030765;28;20033;-63
2022/10/28 01:59:08;;;;;;;15.57;3.95;;;17.10;99.90;;;;;;5032907;28;20025;-65
2022/10/28 02:01:35;;;;;;;7.18;3.00;;;17.00;99.90;;;;;;5023979;28;20168;-63
2022/10/28 02:04:01;;;;;;;14.77;3.60;;;17.00;99.90;;;;;;5031527;28;20039;-64
2022/10/28 02:06:30;;;;;;;9.05;3.38;;;17.00;99.90;;;;;;5030651;28;20028;-64
2022/10/28 02:09:05;;;;;;;11.07;3.97;;;17.10;99.90;;;;;;5027180;28;20037;-63
2022/10/28 02:11:33;;;;;;;8.63;3.15;;;17.10;99.90;;;;;;5018969;28;20598;-63
2022/10/28 02:14:18;;;;;;;11.95;3.80;;;17.00;99.90;;;;;;5032997;28;20515;-64
2022/10/28 02:16:53;;;;;;;7.88;3.00;;;17.10;99.90;;;;;;5030721;28;20071;-65
2022/10/28 02:19:30;;;;;;;7.30;2.97;;;17.10;99.90;;;;;;5032838;28;20056;-64
2022/10/28 02:21:55;;;;;;;6.93;2.70;;;17.10;99.90;;;;;;5027855;28;20519;-63
2022/10/28 02:25:08;;;;;;;7.47;3.10;;;17.10;99.90;;;;;;5008443;28;20034;-64
2022/10/28 02:27:34;;;;;;;10.70;3.60;;;17.20;99.90;;;;;;4950696;29;20027;-64
2022/10/28 02:30:10;;;;;;;8.93;1.92;;;17.20;99.90;;;;;;4950808;29;20671;-63
2022/10/28 02:32:44;;;;;;;9.02;3.50;;;17.20;99.90;;;;;;4998663;28;20045;-64
2022/10/28 02:35:17;;;;;;;;;;;17.20;99.90;;;;;;5032041;28;20026;-65
2022/10/28 02:37:47;;;;;;;9.10;3.20;;;17.10;99.90;;;;;;5020919;28;20012;-65
2022/10/28 02:40:20;;;;;;;11.57;3.50;;;17.20;99.90;;;;;;5028031;28;20068;-63
2022/10/28 02:42:50;;;;;;;11.68;3.60;;;17.20;99.90;;;;;;5031550;28;20041;-64
2022/10/28 02:45:20;;;;;;;13.10;3.53;;;17.20;99.90;;;;;;5030592;28;20496;-64
2022/10/28 02:48:21;;;;;;;7.25;3.00;;;17.10;99.90;;;;;;5031629;28;20091;-64
2022/10/28 02:50:56;;;;;;;11.93;3.05;;;17.10;99.90;;;;;;4990565;28;20037;-64
2022/10/28 02:53:30;;;;;;;13.63;3.58;;;17.10;99.90;;;;;;5030281;28;20025;-64
2022/10/28 02:55:58;;;;;;;9.75;2.95;;;17.10;99.90;;;;;;5032463;28;20395;-64
2022/10/28 02:58:24;;;;;;;15.70;3.50;;;17.10;99.90;;;;;;5031512;28;20040;-63
2022/10/28 03:00:50;;;;;;;6.07;3.47;;;17.10;99.90;;;;;;5029629;28;20029;-64
2022/10/28 03:03:15;;;;;;;8.32;2.72;;;17.10;99.90;;;;;;5030772;28;20052;-64
2022/10/28 03:05:41;;;;;;;15.05;3.50;;;17.10;99.90;;;;;;5023880;28;20029;-64
2022/10/28 03:08:07;;;;;;;13.45;2.83;;;17.10;99.90;;;;;;5031301;28;20080;-64
2022/10/28 03:10:32;;;;;;;14.63;3.10;;;17.00;99.90;;;;;;5028165;28;20611;-64
2022/10/28 03:12:58;;;;;;;12.63;3.50;;;16.90;99.90;;;;;;5030141;28;20034;-64
2022/10/28 03:15:23;;;;;;;7.72;2.72;;;16.80;99.90;;;;;;5030286;28;20021;-64
2022/10/28 03:17:49;;;;;;;7.32;2.85;;;16.80;99.90;;;;;;5026060;28;20030;-64
2022/10/28 03:20:14;;;;;;;16.67;3.15;;;16.80;99.90;;;;;;5024003;28;20034;-63
2022/10/28 03:22:43;;;;;;;12.10;3.55;;;16.90;99.90;;;;;;5030657;28;20029;-63
2022/10/28 03:25:09;;;;;;;18.15;3.90;;;16.90;99.90;;;;;;5030517;28;20040;-63
2022/10/28 03:27:37;;;;;;;8.18;2.80;;;16.90;99.90;;;;;;5022144;28;20033;-64
2022/10/28 03:30:03;;;;;;;11.10;3.47;;;16.80;99.90;;;;;;5029249;28;20655;-64
2022/10/28 03:32:29;;;;;;;10.25;3.53;;;16.80;99.90;;;;;;5027748;28;20032;-64
2022/10/28 03:34:54;;;;;;;10.32;3.38;;;16.70;99.90;;;;;;5030528;28;20443;-64
2022/10/28 03:37:20;;;;;;;7.00;3.25;;;16.70;99.90;;;;;;5030876;28;20030;-65
2022/10/28 03:39:45;;;;;;;6.85;3.45;;;16.60;99.90;;;;;;5031207;28;20022;-64
2022/10/28 03:42:11;;;;;;;9.35;3.75;;;16.60;99.90;;;;;;5029033;28;20420;-64
2022/10/28 03:44:37;;;;;;;7.43;3.72;;;16.60;99.90;;;;;;5031183;28;20069;-64
2022/10/28 03:47:02;;;;;;;11.63;3.20;;;16.60;99.90;;;;;;5012003;28;20030;-64
2022/10/28 03:49:28;;;;;;;9.60;2.63;;;16.60;99.90;;;;;;5031396;28;20041;-64
2022/10/28 03:51:53;;;;;;;14.02;3.72;;;16.60;99.90;;;;;;5024462;28;20034;-63
2022/10/28 03:54:19;;;;;;;21.13;4.90;;;16.60;99.90;;;;;;5029300;28;20485;-63
2022/10/28 03:56:45;;;;;;;7.18;3.53;;;16.60;99.90;;;;;;5025799;28;20025;-64
2022/10/28 03:59:10;;;;;;;12.73;3.40;;;16.70;99.90;;;;;;5027143;28;20021;-64
2022/10/28 04:01:36;;;;;;;6.60;3.30;;;16.70;99.90;;;;;;5029039;28;20030;-63
2022/10/28 04:04:01;;;;;;;8.32;2.70;;;16.70;99.90;;;;;;5028511;28;20056;-63
2022/10/28 04:06:27;;;;;;;15.18;3.17;;;16.70;99.90;;;;;;5029446;28;20247;-63
2022/10/28 04:08:52;;;;;;;13.45;3.60;;;16.60;99.90;;;;;;5021329;28;20040;-64
2022/10/28 04:11:18;;;;;;;7.68;3.00;;;16.70;99.90;;;;;;5030002;28;20029;-64
2022/10/28 04:13:44;;;;;;;8.80;3.20;;;16.70;99.90;;;;;;5030871;28;20029;-64
2022/10/28 04:16:09;;;;;;;23.83;3.97;;;16.70;99.90;;;;;;5029176;28;20028;-65
2022/10/28 04:18:35;;;;;;;10.80;3.35;;;16.70;99.90;;;;;;5030922;28;20021;-64
2022/10/28 04:21:01;;;;;;;10.45;3.60;;;16.60;99.90;;;;;;5028976;28;20193;-63
2022/10/28 04:23:27;;;;;;;7.63;3.45;;;16.60;99.90;;;;;;5028821;28;20052;-63
2022/10/28 04:25:53;;;;;;;6.18;3.45;;;16.50;99.90;;;;;;5017330;28;20481;-64
2022/10/28 04:28:19;;;;;;;14.98;3.80;;;16.50;99.90;;;;;;5022627;28;20030;-65
2022/10/28 04:30:46;;;;;;;15.27;3.40;;;16.40;99.90;;;;;;5026427;28;20116;-64
2022/10/28 04:33:12;;;;;;;19.67;3.65;;;16.30;99.90;;;;;;5028709;28;20087;-64
2022/10/28 04:35:41;;;;;;;11.38;2.80;;;16.20;99.90;;;;;;5022394;28;20029;-64
2022/10/28 04:38:07;;;;;;;8.70;4.18;;;16.30;99.90;;;;;;5005591;28;20108;-64
2022/10/28 04:40:32;;;;;;;9.60;3.35;;;16.20;99.90;;;;;;5029734;28;20120;-65
2022/10/28 04:42:58;;;;;;;9.98;3.55;;;16.20;99.90;;;;;;5029465;28;20124;-63
2022/10/28 04:45:24;;;;;;;8.15;3.35;;;16.10;99.90;;;;;;5027991;28;20029;-65
2022/10/28 04:47:55;;;;;;;11.27;4.10;;;16.00;99.90;;;;;;5023558;28;20112;-64
2022/10/28 04:50:20;;;;;;;9.68;3.88;;;16.00;99.90;;;;;;5022841;28;20029;-64
2022/10/28 04:52:46;;;;;;;7.93;3.72;;;15.90;99.90;;;;;;5029396;28;20478;-64
2022/10/28 04:55:11;;;;;;;10.80;4.18;;;15.80;99.90;;;;;;5009862;28;20099;-63
2022/10/28 04:57:37;;;;;;;10.90;4.47;;;15.90;99.90;;;;;;5030558;28;20040;-63
2022/10/28 05:00:03;;;;;;;9.70;4.18;;;15.90;99.90;;;;;;5027479;28;20025;-64
2022/10/28 05:02:29;;;;;;;11.63;3.80;;;16.00;99.90;;;;;;5028992;28;20033;-63
2022/10/28 05:04:59;;;;;;;11.13;3.70;;;16.00;99.90;;;;;;5026726;28;20156;-64
2022/10/28 05:07:24;;;;;;;6.93;3.53;;;16.10;99.90;;;;;;5030596;28;20017;-64
2022/10/28 05:09:50;;;;;;;11.07;3.67;;;16.10;99.90;;;;;;5028170;28;20504;-64
2022/10/28 05:12:15;;;;;;;10.00;3.75;;;16.20;99.90;;;;;;5033533;28;20156;-65
2022/10/28 05:14:41;;;;;;;14.23;3.15;;;16.20;99.90;;;;;;5029621;28;20049;-64
2022/10/28 05:17:09;;;;;;;10.65;3.03;;;16.20;99.90;;;;;;5032444;28;20021;-64
2022/10/28 05:19:34;;;;;;;10.60;4.22;;;16.10;99.90;;;;;;5033831;28;20215;-64
2022/10/28 05:22:00;;;;;;;10.45;3.58;;;16.20;99.90;;;;;;5025009;28;20100;-64
2022/10/28 05:24:25;;;;;;;8.68;3.80;;;16.20;99.90;;;;;;5034171;28;20044;-64
2022/10/28 05:26:51;;;;;;;13.00;3.30;;;16.20;99.90;;;;;;5033275;28;20033;-64
2022/10/28 05:29:18;;;;;;;7.68;2.83;;;16.10;99.90;;;;;;5033162;28;20034;-63
2022/10/28 05:31:44;;;;;;;11.75;3.20;;;16.10;99.90;;;;;;5026619;28;20029;-64
2022/10/28 05:34:10;;;;;;;10.27;3.85;;;16.10;99.90;;;;;;5016693;28;20029;-64
2022/10/28 05:36:35;;;;;;;8.65;3.30;;;16.10;99.90;;;;;;5022719;28;20014;-64
2022/10/28 05:39:01;;;;;;;11.52;3.33;;;16.10;99.90;;;;;;5015757;28;20025;-64
2022/10/28 05:41:26;;;;;;;13.77;3.67;;;16.00;99.90;;;;;;5029507;28;20033;-63
2022/10/28 05:43:52;;;;;;;9.13;3.97;;;16.00;99.90;;;;;;5025266;28;20385;-63
2022/10/28 05:46:18;;;;;;;12.25;4.20;;;16.00;99.90;;;;;;5030510;28;20071;-64
2022/10/28 05:48:43;;;;;;;10.95;3.65;;;16.00;99.90;;;;;;5025685;28;20025;-64
2022/10/28 05:51:09;;;;;;;7.63;3.78;;;16.00;99.90;;;;;;5024549;28;20064;-64
2022/10/28 05:53:34;;;;;;;12.40;3.85;;;16.00;99.90;;;;;;5032575;28;20056;-63
2022/10/28 05:56:00;;;;;;;16.00;5.03;;;16.00;99.90;;;;;;5034101;28;20030;-63
2022/10/28 05:58:25;;;;;;;15.85;4.70;;;15.90;99.90;;;;;;5017336;28;20459;-63
2022/10/28 06:00:51;;;;;;;7.22;3.63;;;15.90;99.90;;;;;;5031353;28;20095;-64
2022/10/28 06:03:17;;;;;;;9.82;4.13;;;15.80;99.90;;;;;;5025529;28;20033;-64
2022/10/28 06:05:44;;;;;;;7.80;3.50;;;15.60;99.90;;;;;;5025442;28;20456;-64
2022/10/28 06:08:11;;;;;;;16.58;3.92;;;15.70;99.90;;;;;;5030869;28;20057;-64
2022/10/28 06:10:37;;;;;;;8.75;3.35;;;15.70;99.90;;;;;;5003798;28;20029;-63
2022/10/28 06:13:03;;;;;;;8.35;3.30;;;15.70;99.90;;;;;;5029302;28;20575;-64
2022/10/28 06:15:28;;;;;;;10.63;3.60;;;15.60;99.90;;;;;;5033015;28;20028;-65
2022/10/28 06:17:54;;;;;;;16.35;3.78;;;15.60;99.90;;;;;;5030735;28;20049;-64
2022/10/28 06:20:20;;;;;;;10.90;3.63;;;15.60;99.90;;;;;;5013735;28;20415;-64
2022/10/28 06:22:54;;;;;;;11.57;4.22;;;15.50;99.90;;;;;;5031316;28;20033;-64
2022/10/28 06:25:21;;;;;;;8.20;3.83;;;15.50;99.90;;;;;;5031642;28;20021;-64
2022/10/28 06:27:58;;;;;;;20.63;3.88;;;15.40;99.90;;;;;;5017915;28;20128;-64
2022/10/28 06:30:25;;;;;;;15.80;4.30;;;15.40;99.90;;;;;;5020981;28;20121;-63
2022/10/28 06:32:51;;;;;;;11.70;3.30;;;15.50;99.90;;;;;;5026321;28;20104;-64
2022/10/28 06:35:17;;;;;;;10.25;4.63;;;15.60;99.90;;;;;;5024248;28;20834;-64
2022/10/28 06:37:43;;;;;;;15.23;4.72;;;15.70;99.90;;;;;;5023541;28;20033;-63
2022/10/28 06:40:09;;;;;;;11.27;4.45;;;15.70;99.90;;;;;;5024703;28;20029;-63
2022/10/28 06:42:34;;;;;;;9.68;3.63;;;15.70;99.90;;;;;;5030102;28;20052;-64
2022/10/28 06:45:00;;;;;;;18.13;3.15;;;15.80;99.90;;;;;;5030210;28;20429;-64
2022/10/28 06:47:25;;;;;;;14.60;3.90;;;15.90;99.90;;;;;;5032569;28;20548;-64
2022/10/28 06:49:51;;;;;;;12.38;3.30;;;16.00;99.90;;;;;;5032481;28;20397;-64
2022/10/28 06:52:17;;;;;;;10.43;3.50;;;16.00;99.90;;;;;;5030685;28;20034;-64
2022/10/28 06:54:42;;;;;;;9.43;3.72;;;16.20;99.90;;;;;;5009240;28;20049;-64
2022/10/28 06:57:11;;;;;;;10.65;3.50;;;16.20;99.90;;;;;;5030718;28;20377;-64
2022/10/28 06:59:37;;;;;;;9.02;3.40;;;16.30;99.90;;;;;;5028167;28;20515;-63
2022/10/28 07:02:02;;;;;;;8.82;3.42;;;16.30;99.90;;;;;;4983204;28;20050;-64
2022/10/28 07:04:28;;;;;;;12.88;3.45;;;16.30;99.90;;;;;;5006615;28;20040;-64
2022/10/28 07:06:55;;;;;;;10.93;3.97;;;16.40;99.90;;;;;;5008357;28;20672;-63
2022/10/28 07:09:21;;;;;;;12.25;3.70;;;16.50;99.90;;;;;;5004679;28;20164;-64
2022/10/28 07:11:50;;;;;;;28.23;4.18;;;16.50;99.90;;;;;;5004554;28;20109;-63
2022/10/28 07:14:15;;;;;;;9.85;4.03;;;16.60;99.90;;;;;;5009694;28;20022;-64
2022/10/28 07:16:41;;;;;;;12.70;3.40;;;16.60;99.90;;;;;;5003726;28;20089;-64
2022/10/28 07:19:07;;;;;;;15.20;3.85;;;16.60;99.90;;;;;;5011116;28;20033;-64
2022/10/28 07:21:33;;;;;;;13.15;3.22;;;16.70;99.90;;;;;;5010718;28;20034;-64
2022/10/28 07:23:59;;;;;;;9.77;3.67;;;16.70;99.90;;;;;;5010814;28;20030;-64
2022/10/28 07:26:25;;;;;;;10.70;4.07;;;16.80;99.90;;;;;;5050131;23;20059;-67
2022/10/28 07:28:50;;;;;;;16.77;4.60;;;16.80;99.90;;;;;;5047633;28;20021;-67
2022/10/28 07:31:16;;;;;;;8.75;3.10;;;16.90;99.90;;;;;;5047077;28;20104;-67
2022/10/28 07:33:42;;;;;;;15.85;3.20;;;16.90;99.90;;;;;;5046395;28;20539;-67
2022/10/28 07:36:09;;;;;;;10.00;4.10;;;17.00;99.90;;;;;;5060347;28;20071;-68
2022/10/28 07:38:35;;;;;;;8.70;3.40;;;17.00;99.90;;;;;;5050347;28;20044;-66
2022/10/28 07:41:08;;;;;;;15.20;3.60;;;17.10;99.90;;;;;;5042700;28;20043;-66
2022/10/28 07:43:35;;;;;;;;;;;17.10;99.90;;;;;;5051085;28;20467;-68
2022/10/28 07:46:01;;;;;;;10.25;3.15;;;17.20;99.90;;;;;;5045703;28;19909;-67
2022/10/28 07:48:27;;;;;;;9.35;2.67;;;17.30;99.90;;;;;;5046044;28;20108;-67
2022/10/28 07:50:53;;;;;;;9.10;3.33;;;17.40;99.90;;;;;;5046899;28;20036;-67
2022/10/28 07:53:18;;;;;;;9.15;3.38;;;17.50;99.90;;;;;;5048642;28;20355;-67
2022/10/28 07:55:44;;;;;;;14.13;3.90;;;17.50;99.90;;;;;;5050884;28;20025;-68
2022/10/28 07:58:10;;;;;;;15.15;3.17;;;17.60;99.90;;;;;;5048953;28;20029;-67
2022/10/28 08:00:35;;;;;;;9.73;3.22;;;17.70;99.90;;;;;;5029897;28;20068;-67
2022/10/28 08:03:02;;;;;;;15.75;3.85;;;17.70;99.90;;;;;;5042010;28;20407;-66
2022/10/28 08:05:27;;;;;;;21.40;4.20;;;17.70;99.90;;;;;;5048501;28;20135;-67
2022/10/28 08:07:53;;;;;;;10.90;3.58;;;17.80;99.90;;;;;;5045015;28;20516;-67
2022/10/28 08:10:18;;;;;;;13.50;3.83;;;17.90;99.90;;;;;;5045129;28;20970;-65
2022/10/28 08:12:45;;;;;;;14.88;3.40;;;18.00;99.90;;;;;;5040995;28;20044;-68
2022/10/28 08:15:11;;;;;;;11.30;2.92;;;18.10;99.90;;;;;;5046345;28;20087;-67
2022/10/28 08:17:37;;;;;;;10.02;3.00;;;18.20;99.90;;;;;;5049271;28;20088;-67
2022/10/28 08:20:03;;;;;;;7.32;3.17;;;18.20;99.90;;;;;;5043537;28;20040;-67
2022/10/28 08:22:29;;;;;;;10.57;3.17;;;18.30;99.90;;;;;;5047991;28;20044;-67
2022/10/28 08:24:55;;;;;;;12.93;3.05;;;18.20;99.90;;;;;;5049682;28;20029;-68
2022/10/28 08:27:20;;;;;;;6.60;3.20;;;18.30;99.90;;;;;;5048565;28;20040;-68
2022/10/28 08:29:46;;;;;;;11.07;3.45;;;18.30;99.90;;;;;;5050267;28;20021;-67
2022/10/28 08:32:11;;;;;;;11.70;3.00;;;18.30;99.90;;;;;;5043154;28;20037;-65
2022/10/28 08:34:37;;;;;;;11.68;3.45;;;18.30;99.90;;;;;;5050547;28;20157;-68
2022/10/28 08:37:02;;;;;;;11.70;3.00;;;18.30;99.90;;;;;;5040560;28;20025;-68
2022/10/28 08:39:28;;;;;;;7.80;3.15;;;18.40;99.90;;;;;;5040960;28;20629;-67
2022/10/28 08:42:22;;;;;;;7.30;2.63;;;18.50;99.90;;;;;;5046968;28;20033;-68
2022/10/28 08:44:56;;;;;;;19.15;3.78;;;18.70;99.90;;;;;;5043122;28;20036;-67
2022/10/28 08:47:36;;;;;;;13.25;2.85;;;18.70;99.90;;;;;;5045236;28;20062;-67
2022/10/28 08:50:22;;;;;;;12.70;3.88;;;18.80;99.90;;;;;;5064274;28;20032;-68
2022/10/28 08:53:00;;;;;;;10.43;2.80;;;18.80;99.90;;;;;;5054929;28;20029;-67
2022/10/28 08:55:38;;;;;;;11.40;2.88;;;18.90;99.90;;;;;;5049562;28;20723;-67
2022/10/28 08:58:21;;;;;;;17.67;4.03;;;19.00;99.90;;;;;;5046909;28;20428;-67
2022/10/28 09:00:51;;;;;;;16.52;2.97;;;19.20;99.90;;;;;;5025078;28;20045;-66
2022/10/28 09:03:21;;;;;;;12.35;3.35;;;19.30;99.90;;;;;;5047008;28;20499;-67
2022/10/28 09:05:52;;;;;;;9.00;2.92;;;19.40;99.90;;;;;;5044849;28;20037;-67
2022/10/28 09:08:24;;;;;;;11.30;3.22;;;19.50;99.90;;;;;;5045506;28;20068;-67
2022/10/28 09:11:02;;;;;;;12.80;2.85;;;19.60;99.90;;;;;;5048095;28;20104;-67
2022/10/28 09:13:55;;;;;;;9.05;3.72;;;19.80;99.90;;;;;;5045292;28;20017;-67
2022/10/28 09:16:56;;;;;;;7.70;2.95;;;19.80;99.90;;;;;;5046567;28;20025;-67
2022/10/28 09:19:34;;;;;;;10.52;3.25;;;20.00;99.90;;;;;;5044996;28;20035;-68
2022/10/28 09:22:02;;;;;;;11.13;3.13;;;20.00;99.90;;;;;;5045434;28;20132;-67
2022/10/28 09:24:50;;;;;;;12.05;2.33;;;20.20;99.90;;;;;;5045105;28;20044;-67
2022/10/28 09:27:36;;;;;;;11.68;2.63;;;20.10;99.90;;;;;;5047690;28;20061;-67
2022/10/28 09:30:17;;;;;;;11.98;2.97;;;20.00;99.90;;;;;;5042197;28;20091;-67
2022/10/28 09:33:30;;;;;;;7.53;2.42;;;20.00;99.90;;;;;;5033038;28;20031;-67
2022/10/28 09:35:56;;;;;;;12.45;4.13;;;20.20;99.90;;;;;;5037234;28;20416;-67
2022/10/28 09:38:39;;;;;;;12.50;3.03;;;20.50;99.90;;;;;;5044962;28;20029;-68
2022/10/28 09:41:21;;;;;;;10.95;2.70;;;20.70;99.90;;;;;;5048582;28;20025;-67
2022/10/28 09:44:20;;;;;;;11.50;3.28;;;21.00;99.90;;;;;;5042343;28;20033;-67
2022/10/28 09:46:53;;;;;;;12.45;3.25;;;21.10;99.90;;;;;;5041531;28;20128;-67
2022/10/28 09:49:33;;;;;;;12.40;3.75;;;20.90;99.90;;;;;;5047256;28;20031;-67
2022/10/28 09:52:12;;;;;;;13.80;3.63;;;20.90;99.90;;;;;;5046656;28;20119;-67
2022/10/28 09:54:47;;;;;;;8.35;2.70;;;20.80;99.90;;;;;;5047154;28;20021;-67
2022/10/28 09:57:13;;;;;;;8.85;3.03;;;20.80;99.90;;;;;;5047582;28;20035;-68
2022/10/28 09:59:38;;;;;;;13.02;3.13;;;20.80;99.90;;;;;;5052200;28;20025;-66
2022/10/28 10:02:04;;;;;;;16.80;2.80;;;20.70;99.90;;;;;;5034476;28;20573;-67
2022/10/28 10:04:30;;;;;;;10.25;2.83;;;20.60;99.90;;;;;;5042552;28;20033;-65
2022/10/28 10:07:04;;;;;;;13.77;3.10;;;20.60;99.90;;;;;;5042107;28;20084;-67
2022/10/28 10:09:33;;;;;;;10.13;2.90;;;20.60;99.90;;;;;;5043405;28;20013;-67
2022/10/28 10:12:07;;;;;;;19.67;3.10;;;20.80;99.90;;;;;;5044962;28;20142;-67
2022/10/28 10:14:40;;;;;;;13.43;2.75;;;20.90;99.90;;;;;;5045929;28;20583;-67
2022/10/28 10:17:21;;;;;;;11.25;2.55;;;21.00;99.90;;;;;;5050805;28;20041;-67
2022/10/28 10:20:09;;;;;;;13.25;3.17;;;21.20;99.90;;;;;;5043623;28;20036;-67
2022/10/28 10:22:36;;;;;;;16.15;2.83;;;21.30;99.90;;;;;;5046274;28;20036;-67
2022/10/28 10:25:18;;;;;;;14.38;2.38;;;21.30;99.90;;;;;;5048110;28;20606;-68
2022/10/28 10:28:03;;;;;;;9.10;2.38;;;21.40;99.90;;;;;;5038110;28;20034;-67
2022/10/28 10:30:36;;;;;;;17.90;2.85;;;21.70;99.90;;;;;;5039841;28;20037;-67
2022/10/28 10:33:03;;;;;;;10.55;2.83;;;21.80;99.90;;;;;;5039454;28;20074;-67
2022/10/28 10:35:35;;;;;;;9.50;3.25;;;22.00;99.90;;;;;;5046240;28;20032;-67
2022/10/28 10:38:04;;;;;;;10.15;2.88;;;22.10;99.90;;;;;;5049205;28;20029;-67
2022/10/28 10:40:35;;;;;;;13.55;2.70;;;22.20;99.90;;;;;;5042654;28;20025;-67
2022/10/28 10:43:16;;;;;;;7.10;2.58;;;22.30;99.90;;;;;;5043370;28;20437;-67
2022/10/28 10:46:00;;;;;;;12.77;2.97;;;22.30;99.90;;;;;;5048477;28;20055;-67
2022/10/28 10:48:28;;;;;;;15.80;3.63;;;22.40;99.90;;;;;;5048203;28;20040;-68
2022/10/28 10:50:54;;;;;;;13.40;2.83;;;22.50;99.90;;;;;;5050822;28;20025;-66
2022/10/28 10:53:29;;;;;;;11.90;3.10;;;22.70;99.90;;;;;;5048475;28;20422;-67
2022/10/28 10:56:00;;;;;;;15.15;3.30;;;22.80;99.90;;;;;;5046782;28;20028;-66
2022/10/28 10:58:29;;;;;;;6.55;2.47;;;22.80;99.90;;;;;;5049489;28;20500;-67
2022/10/28 11:00:57;;;;;;;7.07;2.80;;;22.90;99.90;;;;;;5029771;28;20120;-67
2022/10/28 11:03:37;;;;;;;10.95;2.55;;;22.90;99.90;;;;;;5054316;28;20029;-66
2022/10/28 11:06:05;;;;;;;17.95;2.92;;;23.00;99.90;;;;;;5043011;28;20108;-66
2022/10/28 11:08:37;;;;;;;18.17;2.92;;;22.90;99.90;;;;;;5036263;28;20448;-69
2022/10/28 11:11:30;;;;;;;8.57;3.15;;;22.80;99.90;;;;;;5039392;28;20088;-68
2022/10/28 11:14:07;;;;;;;8.40;2.67;;;22.80;99.90;;;;;;5038824;28;20033;-67
2022/10/28 11:16:33;;;;;;;14.77;2.88;;;22.80;99.90;;;;;;5046335;28;20036;-67
2022/10/28 11:19:18;;;;;;;14.32;3.05;;;22.80;99.90;;;;;;5037733;28;20136;-67
2022/10/28 11:22:06;;;;;;;8.05;2.38;;;22.80;99.90;;;;;;5038634;28;20040;-67
2022/10/28 11:24:54;;;;;;;7.85;2.50;;;22.80;99.90;;;;;;5050063;28;20040;-66
2022/10/28 11:27:37;;;;;;;11.30;2.95;;;23.00;99.90;;;;;;5057143;28;20039;-67
2022/10/28 11:30:07;;;;;;;15.15;3.40;;;23.10;99.90;;;;;;5042439;28;20025;-67
2022/10/28 11:32:51;;;;;;;12.18;2.80;;;23.40;99.90;;;;;;5038419;28;20040;-67
2022/10/28 11:35:34;;;;;;;8.45;2.35;;;23.50;99.90;;;;;;5036840;28;20017;-67
2022/10/28 11:38:26;;;;;;;15.93;2.45;;;23.60;99.90;;;;;;5043276;28;20553;-66
2022/10/28 11:40:51;;;;;;;9.85;2.78;;;23.70;99.90;;;;;;5044650;28;20025;-67
2022/10/28 11:43:30;;;;;;;11.93;3.95;;;23.60;99.90;;;;;;5040742;28;20107;-70
2022/10/28 11:46:04;;;;;;;13.95;3.47;;;23.50;99.90;;;;;;5044314;28;20053;-67
2022/10/28 11:48:45;;;;;;;;;;;23.30;99.90;;;;;;5039101;28;20075;-67
2022/10/28 11:51:22;;;;;;;15.68;2.15;;;23.30;99.90;;;;;;5035332;28;20551;-67
2022/10/28 11:54:19;;;;;;;8.23;2.40;;;23.00;99.90;;;;;;5041717;28;20523;-65
2022/10/28 11:56:46;;;;;;;10.73;2.60;;;23.00;99.90;;;;;;5038254;28;20075;-69
2022/10/28 11:59:15;;;;;;;9.80;2.30;;;22.90;99.90;;;;;;5040070;28;20476;-67
2022/10/28 12:01:54;;;;;;;8.60;2.53;;;22.90;99.90;;;;;;5019236;28;20726;-70
2022/10/28 12:04:46;;;;;;;9.77;2.83;;;22.90;99.90;;;;;;5038629;28;20131;-68
2022/10/28 12:07:39;;;;;;;15.15;3.15;;;22.90;99.90;;;;;;5041725;28;20034;-69
2022/10/28 12:10:29;;;;;;;7.78;2.85;;;22.90;99.90;;;;;;5039209;28;20076;-68
2022/10/28 12:13:03;;;;;;;9.95;2.90;;;22.90;99.90;;;;;;5041539;28;20040;-69
2022/10/28 12:15:55;;;;;;;10.68;2.47;;;23.00;99.90;;;;;;5037019;28;20128;-69
2022/10/28 12:18:59;;;;;;;13.90;3.42;;;23.00;99.90;;;;;;5018520;28;20041;-69
2022/10/28 12:21:34;;;;;;;9.27;3.20;;;23.10;99.90;;;;;;5045326;28;20408;-68
2022/10/28 12:24:02;;;;;;;12.05;2.60;;;23.10;99.90;;;;;;5033694;28;20041;-71
2022/10/28 12:26:55;;;;;;;11.23;2.72;;;23.20;99.90;;;;;;5047509;28;20060;-69
2022/10/28 12:29:36;;;;;;;12.05;2.92;;;23.20;99.90;;;;;;5039502;28;20029;-67
2022/10/28 12:32:12;;;;;;;13.68;2.88;;;23.20;99.90;;;;;;5037699;28;20506;-67
2022/10/28 12:34:46;;;;;;;9.63;3.10;;;23.20;99.90;;;;;;5042480;28;20147;-68
2022/10/28 12:37:15;;;;;;;;;;;23.10;99.90;;;;;;5041134;28;20025;-69
2022/10/28 12:40:20;;;;;;;7.88;2.83;;;23.20;99.90;;;;;;5040746;28;19966;-69
2022/10/28 12:43:04;;;;;;;9.07;2.78;;;23.10;99.90;;;;;;4954811;28;20030;-68
2022/10/28 12:45:31;;;;;;;9.52;3.55;;;23.10;99.90;;;;;;5014709;28;20460;-65
2022/10/28 12:47:57;;;;;;;11.90;3.05;;;23.10;99.90;;;;;;5002457;28;20148;-68
2022/10/28 12:50:55;;;;;;;10.38;3.35;;;23.10;99.90;;;;;;5022495;28;20025;-65
2022/10/28 12:53:27;;;;;;;10.20;2.95;;;23.10;99.90;;;;;;5001113;28;20471;-70
2022/10/28 12:55:59;;;;;;;11.25;3.17;;;23.00;99.90;;;;;;5041883;28;20071;-68
2022/10/28 12:58:50;;;;;;;12.25;3.45;;;23.00;99.90;;;;;;5039599;28;20017;-68
2022/10/28 13:01:18;;;;;;;13.75;3.25;;;22.90;99.90;;;;;;5035428;28;20999;-67
2022/10/28 13:03:43;;;;;;;12.95;3.15;;;22.70;99.90;;;;;;5032342;28;20033;-68